createdAt,value
2023-01-28T00:01:22.449Z,0.70
2023-01-28T00:03:53.210Z,0.60
2023-01-28T00:06:19.994Z,0.82
2023-01-28T00:08:46.572Z,0.70
2023-01-28T00:11:14.397Z,0.65
2023-01-28T00:13:41.755Z,0.70
2023-01-28T00:16:09.743Z,0.70
2023-01-28T00:18:36.898Z,0.60
2023-01-28T00:21:08.362Z,0.65
2023-01-28T00:23:36.952Z,0.70
2023-01-28T00:26:08.354Z,0.68
2023-01-28T00:28:35.548Z,0.70
2023-01-28T00:31:09.932Z,0.93
2023-01-28T00:33:37.501Z,0.80
2023-01-28T00:36:06.676Z,0.60
2023-01-28T00:38:34.338Z,0.68
2023-01-28T00:41:12.957Z,0.70
2023-01-28T00:43:40.842Z,0.80
2023-01-28T00:46:09.280Z,0.80
2023-01-28T00:48:40.303Z,0.80
2023-01-28T00:51:08.146Z,0.70
2023-01-28T00:53:36.297Z,0.75
2023-01-28T00:56:04.928Z,0.80
2023-01-28T00:58:32.538Z,0.80
2023-01-28T01:01:08.773Z,0.80
2023-01-28T01:03:35.884Z,0.80
2023-01-28T01:06:02.656Z,0.63
2023-01-28T01:08:35.018Z,0.70
2023-01-28T01:11:03.142Z,0.73
2023-01-28T01:13:30.570Z,0.75
2023-01-28T01:16:19.271Z,0.63
2023-01-28T01:18:45.788Z,0.75
2023-01-28T01:21:17.467Z,0.80
2023-01-28T01:23:45.130Z,0.70
2023-01-28T01:26:13.235Z,0.68
2023-01-28T01:28:40.832Z,0.60
2023-01-28T01:31:12.056Z,0.73
2023-01-28T01:33:39.950Z,0.85
2023-01-28T01:36:09.017Z,0.82
2023-01-28T01:38:36.849Z,0.82
2023-01-28T01:41:05.083Z,0.80
2023-01-28T01:43:59.702Z,0.90
2023-01-28T01:46:49.902Z,0.70
2023-01-28T01:49:28.720Z,0.80
2023-01-28T01:52:02.504Z,0.75
2023-01-28T01:54:32.944Z,0.50
2023-01-28T01:57:00.939Z,0.75
2023-01-28T01:59:33.329Z,0.90
2023-01-28T02:02:06.005Z,0.90
2023-01-28T02:04:38.672Z,0.85
2023-01-28T02:07:08.502Z,0.85
2023-01-28T02:09:36.662Z,0.90
2023-01-28T02:12:10.795Z,1.00
2023-01-28T02:14:44.231Z,0.82
2023-01-28T02:17:11.445Z,0.90
2023-01-28T02:19:44.797Z,0.75
2023-01-28T02:22:11.312Z,0.73
2023-01-28T02:24:59.357Z,0.70
2023-01-28T02:27:39.958Z,0.90
2023-01-28T02:30:25.244Z,0.98
2023-01-28T02:32:59.829Z,0.80
2023-01-28T02:35:42.079Z,0.95
2023-01-28T02:38:14.179Z,0.80
2023-01-28T02:41:02.257Z,0.82
2023-01-28T02:43:33.991Z,0.82
2023-01-28T02:46:29.155Z,0.90
2023-01-28T02:48:56.803Z,0.80
2023-01-28T02:51:35.421Z,0.90
2023-01-28T02:54:12.437Z,0.95
2023-01-28T02:56:44.548Z,0.80
2023-01-28T02:59:32.243Z,0.77
2023-01-28T03:02:21.543Z,0.80
2023-01-28T03:04:55.810Z,0.80
2023-01-28T03:07:27.082Z,0.70
2023-01-28T03:09:58.906Z,0.90
2023-01-28T03:12:47.697Z,0.80
2023-01-28T03:15:39.848Z,0.77
2023-01-28T03:18:36.159Z,0.85
2023-01-28T03:21:24.021Z,1.00
2023-01-28T03:24:19.369Z,0.80
2023-01-28T03:27:16.591Z,1.05
2023-01-28T03:30:03.017Z,0.90
2023-01-28T03:35:36.968Z,1.00
2023-01-28T03:38:18.738Z,1.08
2023-01-28T03:40:56.472Z,0.90
2023-01-28T03:43:24.232Z,0.80
2023-01-28T03:45:51.628Z,0.80
2023-01-28T03:48:24.386Z,0.90
2023-01-28T03:50:51.968Z,0.73
2023-01-28T03:53:19.479Z,0.70
2023-01-28T03:55:48.528Z,0.95
2023-01-28T03:58:16.512Z,0.90
2023-01-28T04:00:43.730Z,0.80
2023-01-28T04:03:16.645Z,0.93
2023-01-28T04:05:44.855Z,0.85
2023-01-28T04:08:15.271Z,0.90
2023-01-28T04:10:43.904Z,0.75
2023-01-28T04:13:13.359Z,0.90
2023-01-28T04:15:40.070Z,0.82
2023-01-28T04:18:06.818Z,0.80
2023-01-28T04:20:33.403Z,0.77
2023-01-28T04:22:59.998Z,1.00
2023-01-28T04:25:26.773Z,0.95
2023-01-28T04:27:53.675Z,0.90
2023-01-28T04:30:20.990Z,1.08
2023-01-28T04:32:47.784Z,0.90
2023-01-28T04:35:15.333Z,0.88
2023-01-28T04:37:42.609Z,0.98
2023-01-28T04:40:11.164Z,1.08
2023-01-28T04:42:38.174Z,0.98
2023-01-28T04:45:07.912Z,0.88
2023-01-28T04:47:34.509Z,0.80
2023-01-28T04:50:01.049Z,0.90
2023-01-28T04:52:28.059Z,0.95
2023-01-28T04:54:55.122Z,1.05
2023-01-28T04:57:21.686Z,1.10
2023-01-28T04:59:48.229Z,0.90
2023-01-28T05:02:14.825Z,0.80
2023-01-28T05:04:41.359Z,0.90
2023-01-28T05:07:08.406Z,0.95
2023-01-28T05:09:35.006Z,1.00
2023-01-28T05:12:01.566Z,1.00
2023-01-28T05:14:28.713Z,0.88
2023-01-28T05:16:55.302Z,1.05
2023-01-28T05:19:22.324Z,1.00
2023-01-28T05:21:48.850Z,1.10
2023-01-28T05:24:16.010Z,1.02
2023-01-28T05:26:43.306Z,1.10
2023-01-28T05:29:10.960Z,0.93
2023-01-28T05:31:37.491Z,1.20
2023-01-28T05:34:04.028Z,1.10
2023-01-28T05:36:31.094Z,0.82
2023-01-28T05:38:57.696Z,1.15
2023-01-28T05:41:24.282Z,1.00
2023-01-28T05:43:50.874Z,1.10
2023-01-28T05:46:17.421Z,1.00
2023-01-28T05:48:44.761Z,1.13
2023-01-28T05:51:11.441Z,1.10
2023-01-28T05:53:38.473Z,1.00
2023-01-28T05:56:05.855Z,1.10
2023-01-28T05:58:33.537Z,0.90
2023-01-28T06:01:00.589Z,1.40
2023-01-28T06:03:27.239Z,1.02
2023-01-28T06:05:54.247Z,1.30
2023-01-28T06:08:20.862Z,1.25
2023-01-28T06:10:47.414Z,1.02
2023-01-28T06:13:14.431Z,1.23
2023-01-28T06:15:41.531Z,1.05
2023-01-28T06:18:08.649Z,1.20
2023-01-28T06:20:36.201Z,1.15
2023-01-28T06:23:03.331Z,1.20
2023-01-28T06:25:30.427Z,1.10
2023-01-28T06:27:57.445Z,1.23
2023-01-28T06:30:24.482Z,1.20
2023-01-28T06:32:55.667Z,1.27
2023-01-28T06:35:22.499Z,1.35
2023-01-28T06:37:49.062Z,1.30
2023-01-28T06:40:17.362Z,1.20
2023-01-28T06:42:44.643Z,1.10
2023-01-28T06:45:12.089Z,1.30
2023-01-28T06:47:39.929Z,1.40
2023-01-28T06:50:07.269Z,1.10
2023-01-28T06:52:41.172Z,1.20
2023-01-28T06:55:08.308Z,1.30
2023-01-28T06:57:37.792Z,0.88
2023-01-28T07:00:05.286Z,1.42
2023-01-28T07:02:31.880Z,1.38
2023-01-28T07:04:58.408Z,1.45
2023-01-28T07:07:25.519Z,1.65
2023-01-28T07:09:53.019Z,1.15
2023-01-28T07:12:20.075Z,1.17
2023-01-28T07:14:47.096Z,1.23
2023-01-28T07:17:14.147Z,1.45
2023-01-28T07:19:41.177Z,1.60
2023-01-28T07:22:07.713Z,1.70
2023-01-28T07:24:34.943Z,1.55
2023-01-28T07:27:01.996Z,1.50
2023-01-28T07:29:28.617Z,1.48
2023-01-28T07:31:55.720Z,1.50
2023-01-28T07:34:22.908Z,1.25
2023-01-28T07:36:49.479Z,1.10
2023-01-28T07:39:16.491Z,1.33
2023-01-28T07:41:43.274Z,1.40
2023-01-28T07:44:09.885Z,1.75
2023-01-28T07:46:36.976Z,1.60
2023-01-28T07:49:03.580Z,1.45
2023-01-28T07:51:30.618Z,1.35
2023-01-28T07:53:57.541Z,1.70
2023-01-28T07:56:24.175Z,1.10
2023-01-28T07:58:50.746Z,1.25
2023-01-28T08:01:18.320Z,1.20
2023-01-28T08:03:44.995Z,1.10
2023-01-28T08:06:12.218Z,1.05
2023-01-28T08:08:39.272Z,0.80
2023-01-28T08:11:10.811Z,1.00
2023-01-28T08:13:37.893Z,1.00
2023-01-28T08:16:06.297Z,0.93
2023-01-28T08:18:33.395Z,1.00
2023-01-28T08:21:00.182Z,1.00
2023-01-28T08:23:27.203Z,0.85
2023-01-28T08:25:54.433Z,1.00
2023-01-28T08:28:22.349Z,1.10
2023-01-28T08:30:49.055Z,1.10
2023-01-28T08:33:17.216Z,1.10
2023-01-28T08:35:43.821Z,1.20
2023-01-28T08:38:12.842Z,1.10
2023-01-28T08:40:40.955Z,1.83
2023-01-28T08:43:07.888Z,2.10
2023-01-28T08:45:34.954Z,1.50
2023-01-28T08:48:05.684Z,2.05
2023-01-28T08:50:36.375Z,1.83
2023-01-28T08:53:05.652Z,1.70
2023-01-28T08:55:34.633Z,1.70
2023-01-28T08:58:06.195Z,1.70
2023-01-28T09:00:34.361Z,1.60
2023-01-28T09:03:01.281Z,1.85
2023-01-28T09:05:30.089Z,1.60
2023-01-28T09:07:56.614Z,1.42
2023-01-28T09:10:23.242Z,1.20
2023-01-28T09:12:49.819Z,1.10
2023-01-28T09:15:17.791Z,1.23
2023-01-28T09:17:44.602Z,1.10
2023-01-28T09:20:13.071Z,1.13
2023-01-28T09:22:39.902Z,1.00
2023-01-28T09:25:07.794Z,1.02
2023-01-28T09:27:34.410Z,0.90
2023-01-28T09:30:00.950Z,1.00
2023-01-28T09:32:28.180Z,1.00
2023-01-28T09:34:54.738Z,0.80
2023-01-28T09:37:21.284Z,0.75
2023-01-28T09:39:48.372Z,0.60
2023-01-28T09:42:28.644Z,0.80
2023-01-28T09:45:21.750Z,0.90
2023-01-28T09:47:52.564Z,1.40
2023-01-28T09:50:30.177Z,0.98
2023-01-28T09:53:10.161Z,0.70
2023-01-28T09:55:40.917Z,0.80
2023-01-28T10:01:06.184Z,0.93
2023-01-28T10:03:38.695Z,0.73
2023-01-28T10:06:23.693Z,0.80
2023-01-28T10:09:19.388Z,0.90
2023-01-28T10:11:57.012Z,0.63
2023-01-28T10:14:34.723Z,0.77
2023-01-28T10:17:13.092Z,0.80
2023-01-28T10:19:45.793Z,0.70
2023-01-28T10:22:23.382Z,0.68
2023-01-28T10:25:06.446Z,0.50
2023-01-28T10:27:36.067Z,0.63
2023-01-28T10:30:25.648Z,0.65
2023-01-28T10:33:10.682Z,0.60
2023-01-28T10:35:41.963Z,0.68
2023-01-28T10:38:14.048Z,0.70
2023-01-28T10:40:44.348Z,0.80
2023-01-28T10:43:11.527Z,0.63
2023-01-28T10:45:54.829Z,0.55
2023-01-28T10:48:29.300Z,0.70
2023-01-28T10:51:06.078Z,0.63
2023-01-28T10:53:41.925Z,0.70
2023-01-28T10:59:17.961Z,0.80
2023-01-28T11:02:00.310Z,0.60
2023-01-28T11:04:30.884Z,0.60
2023-01-28T11:07:01.098Z,0.70
2023-01-28T11:09:34.217Z,0.60
2023-01-28T11:12:22.352Z,0.55
2023-01-28T11:14:52.512Z,0.60
2023-01-28T11:17:21.501Z,0.80
2023-01-28T11:19:49.284Z,0.55
2023-01-28T11:22:36.837Z,0.60
2023-01-28T11:25:14.288Z,0.80
2023-01-28T11:27:40.979Z,0.80
2023-01-28T11:30:20.738Z,0.60
2023-01-28T11:32:57.756Z,0.40
2023-01-28T11:35:28.484Z,0.70
2023-01-28T11:37:55.242Z,0.52
2023-01-28T11:40:22.809Z,0.70
2023-01-28T11:42:54.139Z,0.55
2023-01-28T11:45:31.576Z,0.40
2023-01-28T11:48:12.532Z,0.47
2023-01-28T11:50:51.498Z,0.50
2023-01-28T11:53:42.725Z,0.55
2023-01-28T11:56:33.132Z,0.50
2023-01-28T11:59:27.765Z,0.40
2023-01-28T12:02:11.747Z,0.60
2023-01-28T12:04:51.345Z,0.47
2023-01-28T12:07:43.791Z,0.80
2023-01-28T12:10:20.236Z,0.50
2023-01-28T12:13:04.424Z,0.50
2023-01-28T12:15:49.939Z,0.40
2023-01-28T12:18:41.065Z,0.43
2023-01-28T12:21:16.735Z,0.55
2023-01-28T12:24:18.656Z,0.40
2023-01-28T12:27:19.433Z,0.50
2023-01-28T12:30:22.334Z,0.30
2023-01-28T12:33:30.234Z,0.50
2023-01-28T12:36:09.829Z,0.40
2023-01-28T12:39:27.665Z,0.50
2023-01-28T12:42:15.884Z,0.50
2023-01-28T12:45:11.617Z,0.40
2023-01-28T12:47:40.758Z,0.50
2023-01-28T12:50:19.008Z,0.30
2023-01-28T12:52:53.274Z,0.45
2023-01-28T12:55:30.612Z,0.70
2023-01-28T12:57:58.964Z,0.50
2023-01-28T13:00:28.420Z,0.55
2023-01-28T13:03:32.814Z,0.40
2023-01-28T13:06:05.267Z,0.30
2023-01-28T13:08:32.337Z,0.47
2023-01-28T13:11:03.432Z,0.30
2023-01-28T13:13:38.345Z,0.45
2023-01-28T13:16:08.582Z,0.40
2023-01-28T13:18:41.442Z,0.30
2023-01-28T13:21:40.102Z,0.30
2023-01-28T13:24:14.272Z,0.30
2023-01-28T13:26:48.824Z,0.47
2023-01-28T13:29:15.325Z,0.20
2023-01-28T13:31:44.873Z,0.47
2023-01-28T13:34:36.364Z,0.40
2023-01-28T13:37:44.159Z,0.40
2023-01-28T13:40:13.549Z,0.40
2023-01-28T13:42:41.374Z,0.47
2023-01-28T13:45:17.593Z,0.30
2023-01-28T13:47:47.599Z,0.35
2023-01-28T13:50:31.584Z,0.20
2023-01-28T13:53:13.541Z,0.25
2023-01-28T13:55:45.491Z,0.35
2023-01-28T13:58:35.581Z,0.38
2023-01-28T14:01:20.701Z,0.40
2023-01-28T14:04:15.891Z,0.40
2023-01-28T14:07:30.559Z,0.30
2023-01-28T14:10:34.717Z,0.40
2023-01-28T14:13:26.265Z,0.28
2023-01-28T14:15:58.775Z,0.40
2023-01-28T14:18:29.891Z,0.22
2023-01-28T14:21:00.506Z,0.50
2023-01-28T14:23:31.108Z,0.30
2023-01-28T14:26:24.235Z,0.50
2023-01-28T14:29:06.483Z,0.47
2023-01-28T14:31:37.487Z,0.75
2023-01-28T14:34:12.085Z,0.63
2023-01-28T14:36:45.166Z,0.40
2023-01-28T14:39:18.307Z,0.70
2023-01-28T14:41:48.736Z,0.50
2023-01-28T14:44:26.157Z,0.50
2023-01-28T14:47:34.956Z,0.50
2023-01-28T14:50:47.830Z,0.70
2023-01-28T14:53:34.821Z,0.30
2023-01-28T14:56:18.649Z,0.50
2023-01-28T14:58:49.794Z,0.50
2023-01-28T15:01:26.007Z,0.30
2023-01-28T15:03:53.243Z,0.40
2023-01-28T15:06:30.599Z,0.60
2023-01-28T15:09:08.032Z,0.45
2023-01-28T15:11:39.493Z,0.40
2023-01-28T15:14:20.076Z,0.40
2023-01-28T15:16:51.401Z,0.35
2023-01-28T15:19:27.846Z,0.52
2023-01-28T15:22:00.643Z,0.50
2023-01-28T15:24:27.335Z,0.52
2023-01-28T15:26:54.168Z,0.50
2023-01-28T15:29:36.411Z,0.30
2023-01-28T15:32:05.146Z,0.45
2023-01-28T15:34:32.178Z,0.57
2023-01-28T15:37:00.746Z,0.50
2023-01-28T15:39:29.636Z,0.43
2023-01-28T15:41:58.613Z,0.50
2023-01-28T15:44:30.338Z,0.45
2023-01-28T15:46:59.640Z,0.80
2023-01-28T15:49:34.190Z,0.55
2023-01-28T15:52:01.677Z,0.68
2023-01-28T15:54:30.413Z,0.50
2023-01-28T15:56:57.477Z,0.80
2023-01-28T15:59:31.171Z,0.60
2023-01-28T16:02:19.378Z,0.50
2023-01-28T16:05:08.286Z,0.60
2023-01-28T16:07:45.001Z,0.60
2023-01-28T16:10:22.007Z,0.47
2023-01-28T16:12:53.051Z,0.50
2023-01-28T16:15:21.331Z,0.50
2023-01-28T16:17:51.905Z,0.70
2023-01-28T16:20:27.406Z,0.65
2023-01-28T16:23:00.256Z,0.60
2023-01-28T16:25:32.961Z,0.63
2023-01-28T16:28:01.627Z,0.50
2023-01-28T16:30:30.054Z,0.45
2023-01-28T16:32:57.227Z,0.57
2023-01-28T16:35:42.581Z,0.50
2023-01-28T16:38:17.108Z,0.60
2023-01-28T16:40:45.190Z,0.50
2023-01-28T16:43:13.691Z,0.60
2023-01-28T16:45:41.868Z,0.45
2023-01-28T16:48:08.493Z,0.50
2023-01-28T16:50:38.387Z,0.50
2023-01-28T16:53:05.683Z,0.80
2023-01-28T16:55:32.732Z,0.63
2023-01-28T16:57:59.391Z,0.57
2023-01-28T17:00:27.860Z,0.65
2023-01-28T17:02:54.893Z,0.75
2023-01-28T17:05:22.614Z,0.60
2023-01-28T17:07:50.538Z,1.10
2023-01-28T17:10:18.382Z,0.68
2023-01-28T17:12:45.101Z,1.05
2023-01-28T17:15:12.518Z,1.05
2023-01-28T17:17:39.114Z,0.88
2023-01-28T17:20:06.321Z,1.02
2023-01-28T17:22:33.444Z,1.02
2023-01-28T17:25:00.035Z,1.00
2023-01-28T17:27:26.782Z,1.10
2023-01-28T17:29:54.195Z,1.00
2023-01-28T17:32:20.812Z,0.90
2023-01-28T17:34:48.226Z,0.80
2023-01-28T17:37:15.453Z,1.10
2023-01-28T17:39:42.481Z,0.90
2023-01-28T17:42:09.128Z,1.00
2023-01-28T17:44:35.663Z,0.95
2023-01-28T17:47:02.739Z,0.90
2023-01-28T17:49:29.562Z,0.68
2023-01-28T17:51:56.581Z,1.05
2023-01-28T17:54:24.323Z,0.95
2023-01-28T17:56:51.200Z,0.90
2023-01-28T17:59:17.828Z,1.00
2023-01-28T18:01:45.205Z,1.00
2023-01-28T18:04:13.176Z,0.90
2023-01-28T18:06:40.485Z,0.98
2023-01-28T18:09:09.113Z,0.95
2023-01-28T18:11:35.683Z,1.05
2023-01-28T18:14:02.736Z,0.60
2023-01-28T18:16:29.898Z,0.70
2023-01-28T18:18:56.483Z,0.90
2023-01-28T18:21:51.273Z,1.10
2023-01-28T18:24:20.031Z,0.65
2023-01-28T18:26:47.293Z,1.23
2023-01-28T18:29:17.062Z,0.68
2023-01-28T18:31:44.368Z,0.88
2023-01-28T18:34:11.921Z,0.77
2023-01-28T18:36:38.966Z,0.80
2023-01-28T18:39:05.724Z,0.75
2023-01-28T18:41:32.743Z,0.80
2023-01-28T18:43:59.737Z,0.88
2023-01-28T18:46:26.834Z,1.15
2023-01-28T18:48:53.856Z,0.82
2023-01-28T18:51:30.175Z,0.88
2023-01-28T18:54:04.025Z,0.70
2023-01-28T18:56:31.869Z,1.00
2023-01-28T18:59:00.787Z,0.90
2023-01-28T19:01:28.223Z,0.80
2023-01-28T19:03:56.696Z,0.85
2023-01-28T19:06:24.654Z,1.02
2023-01-28T19:08:54.018Z,0.93
2023-01-28T19:11:21.964Z,0.90
2023-01-28T19:13:49.056Z,0.75
2023-01-28T19:16:15.726Z,0.75
2023-01-28T19:18:42.831Z,1.00
2023-01-28T19:21:09.882Z,1.15
2023-01-28T19:23:49.224Z,1.00
2023-01-28T19:26:21.066Z,0.90
2023-01-28T19:28:49.210Z,0.80
2023-01-28T19:31:18.632Z,0.98
2023-01-28T19:33:45.751Z,1.10
2023-01-28T19:36:13.680Z,1.10
2023-01-28T19:38:40.635Z,1.13
2023-01-28T19:41:08.054Z,1.00
2023-01-28T19:43:35.769Z,1.15
2023-01-28T19:46:05.037Z,1.00
2023-01-28T19:48:33.210Z,1.00
2023-01-28T19:51:07.432Z,1.10
2023-01-28T19:53:35.322Z,1.20
2023-01-28T19:56:08.032Z,1.00
2023-01-28T19:58:36.522Z,0.85
2023-01-28T20:01:14.434Z,1.02
2023-01-28T20:03:41.927Z,0.95
2023-01-28T20:06:12.173Z,1.00
2023-01-28T20:08:39.281Z,1.00
2023-01-28T20:11:09.268Z,1.00
2023-01-28T20:13:37.278Z,1.20
2023-01-28T20:16:09.317Z,1.40
2023-01-28T20:18:35.985Z,0.95
2023-01-28T20:21:04.973Z,1.10
2023-01-28T20:23:32.872Z,1.02
2023-01-28T20:26:02.934Z,1.20
2023-01-28T20:28:30.234Z,1.13
2023-01-28T20:30:56.967Z,1.10
2023-01-28T20:33:24.244Z,1.17
2023-01-28T20:35:51.308Z,1.00
2023-01-28T20:38:18.408Z,1.30
2023-01-28T20:40:46.079Z,1.30
2023-01-28T20:43:12.592Z,1.08
2023-01-28T20:45:39.739Z,1.17
2023-01-28T20:48:07.093Z,1.10
2023-01-28T20:50:35.539Z,1.27
2023-01-28T20:53:02.572Z,1.10
2023-01-28T20:55:29.679Z,1.20
2023-01-28T20:57:56.217Z,1.17
2023-01-28T21:00:23.650Z,1.10
2023-01-28T21:02:50.802Z,1.10
2023-01-28T21:05:17.924Z,1.40
2023-01-28T21:07:45.114Z,1.30
2023-01-28T21:10:12.067Z,1.35
2023-01-28T21:12:38.602Z,1.00
2023-01-28T21:15:06.332Z,1.10
2023-01-28T21:17:33.421Z,1.30
2023-01-28T21:20:00.023Z,1.23
2023-01-28T21:22:27.161Z,0.95
2023-01-28T21:24:54.204Z,1.27
2023-01-28T21:27:20.783Z,1.38
2023-01-28T21:29:47.358Z,1.30
2023-01-28T21:32:14.158Z,1.30
2023-01-28T21:34:40.726Z,1.10
2023-01-28T21:37:07.255Z,1.55
2023-01-28T21:39:33.775Z,1.00
2023-01-28T21:42:00.415Z,1.42
2023-01-28T21:44:28.099Z,1.10
2023-01-28T21:46:54.674Z,1.35
2023-01-28T21:49:21.364Z,1.40
2023-01-28T21:51:48.003Z,1.42
2023-01-28T21:54:18.424Z,1.30
2023-01-28T21:56:50.325Z,1.38
2023-01-28T21:59:38.411Z,1.30
2023-01-28T22:02:14.303Z,1.63
2023-01-28T22:07:17.217Z,1.40
2023-01-28T22:09:45.070Z,1.00
2023-01-28T22:12:14.739Z,1.05
2023-01-28T22:14:43.161Z,1.17
2023-01-28T22:17:11.808Z,1.30
2023-01-28T22:19:39.133Z,1.48
2023-01-28T22:22:06.438Z,1.40
2023-01-28T22:24:33.134Z,1.48
2023-01-28T22:27:00.296Z,1.40
2023-01-28T22:29:26.873Z,1.23
2023-01-28T22:31:54.722Z,1.60
2023-01-28T22:34:22.009Z,1.48
2023-01-28T22:36:50.462Z,1.50
2023-01-28T22:39:17.975Z,1.90
2023-01-28T22:41:45.822Z,2.00
2023-01-28T22:44:12.570Z,2.13
2023-01-28T22:46:39.678Z,2.03
2023-01-28T22:49:06.369Z,2.47
2023-01-28T22:51:36.161Z,2.25
2023-01-28T22:54:04.027Z,2.72
2023-01-28T22:56:31.866Z,2.55
2023-01-28T22:59:00.585Z,2.67
2023-01-28T23:01:28.350Z,2.70
2023-01-28T23:03:56.873Z,3.00
2023-01-28T23:06:25.307Z,2.70
2023-01-28T23:08:52.044Z,3.00
2023-01-28T23:11:25.528Z,2.90
2023-01-28T23:14:18.997Z,3.03
2023-01-28T23:17:04.985Z,3.50
2023-01-28T23:19:50.379Z,3.60
2023-01-28T23:22:40.944Z,3.60
2023-01-28T23:25:08.938Z,4.00
2023-01-28T23:27:36.478Z,3.53
2023-01-28T23:30:04.570Z,3.33
2023-01-28T23:32:31.724Z,3.90
2023-01-28T23:34:58.325Z,3.80
2023-01-28T23:37:24.937Z,3.92
2023-01-28T23:39:51.505Z,4.20
2023-01-28T23:42:23.692Z,3.90
2023-01-28T23:44:50.751Z,4.32
2023-01-28T23:47:18.219Z,3.83
2023-01-28T23:49:45.819Z,4.00
2023-01-28T23:52:12.854Z,3.78
2023-01-28T23:54:39.442Z,3.45
2023-01-28T23:57:06.342Z,3.88
2023-01-28T23:59:33.420Z,3.95
